Barkersville, New York
Current Conditions -  °F | °C
As of 7:15 AM on Monday 29 Dec 2014 (Local Time) from KNY0 Reporting Station
Overcast Overcast  
Wind Chill: 22°   Ceiling: 4900
Heat Index: 28°   Visibility: 10mi
Dew Point: 23°   Wind: 6mph
Humidity: 81%   Direction: 270°W
Pressure: 30.1"   Gusts: NA
Location:  43.1097°N, 74.0176°W
Report Text: KNY0 291215Z AUTO 27005KT 10SM SCT020 SCT028 OVC049 M02/M05 A3010 RMK AO2 T10201048
Loading
Personal Weather Stations






























Interactive Weather Map New forecast layout! Learn more

10-Day Weather Forecast

Advertisements
Track Severe Weather on mobile